Terminal Aerodrome Forecast
Issued by NWS Norman, OK

Home | Current Version | Previous Version | Text Only | Print | Product List | Glossary On
Versions: 1 2 3 4 5 6 7 8 9 10 11 12 13 14 15 16 17 18 19 20 21 22 23 24 25 26 27 28 29 30 31
000
FTUS44 KOUN 181730
TAFOKC
TAF
KOKC 181730Z 1818/1918 17007KT P6SM BKN050
     FM190100 17007KT P6SM OVC025
     FM190600 16006KT 5SM BR OVC008
     FM190900 16006KT 2SM BR OVC008
      TEMPO 1909/1913 3/4SM -DZ BR OVC003
     FM191300 16008KT 3SM BR OVC006=

USA.gov is the U.S. government's official web portal to all federal, state and local government web resources and services.